sensor_id;sensor_type;location;lat;lon;timestamp;P1;durP1;ratioP1;P2;durP2;ratioP2
54271;SDS011;40184;53.362;5.216;2022-11-14T00:00:21;32.80;;;27.15;;
54271;SDS011;40184;53.362;5.216;2022-11-14T00:02:46;32.53;;;26.55;;
54271;SDS011;40184;53.362;5.216;2022-11-14T00:05:12;30.60;;;25.25;;
54271;SDS011;40184;53.362;5.216;2022-11-14T00:07:37;37.90;;;27.33;;
54271;SDS011;40184;53.362;5.216;2022-11-14T00:10:03;36.33;;;28.27;;
54271;SDS011;40184;53.362;5.216;2022-11-14T00:12:29;34.75;;;28.02;;
54271;SDS011;40184;53.362;5.216;2022-11-14T00:14:55;34.42;;;29.17;;
54271;SDS011;40184;53.362;5.216;2022-11-14T00:17:21;37.88;;;30.30;;
54271;SDS011;40184;53.362;5.216;2022-11-14T00:19:47;38.55;;;30.02;;
54271;SDS011;40184;53.362;5.216;2022-11-14T00:22:12;34.17;;;28.42;;
54271;SDS011;40184;53.362;5.216;2022-11-14T00:24:38;35.65;;;29.55;;
54271;SDS011;40184;53.362;5.216;2022-11-14T00:27:03;38.60;;;28.27;;
54271;SDS011;40184;53.362;5.216;2022-11-14T00:29:29;44.53;;;31.50;;
54271;SDS011;40184;53.362;5.216;2022-11-14T00:31:55;40.47;;;31.58;;
54271;SDS011;40184;53.362;5.216;2022-11-14T00:34:20;42.15;;;32.85;;
54271;SDS011;40184;53.362;5.216;2022-11-14T00:36:46;47.95;;;33.25;;
54271;SDS011;40184;53.362;5.216;2022-11-14T00:39:12;41.97;;;32.95;;
54271;SDS011;40184;53.362;5.216;2022-11-14T00:41:39;48.15;;;34.17;;
54271;SDS011;40184;53.362;5.216;2022-11-14T00:44:05;48.25;;;37.28;;
54271;SDS011;40184;53.362;5.216;2022-11-14T00:46:31;46.70;;;35.60;;
54271;SDS011;40184;53.362;5.216;2022-11-14T00:48:57;49.83;;;34.67;;
54271;SDS011;40184;53.362;5.216;2022-11-14T00:51:23;49.13;;;35.17;;
54271;SDS011;40184;53.362;5.216;2022-11-14T00:53:48;47.38;;;34.15;;
54271;SDS011;40184;53.362;5.216;2022-11-14T00:56:14;47.15;;;34.13;;
54271;SDS011;40184;53.362;5.216;2022-11-14T00:58:39;57.88;;;38.60;;
54271;SDS011;40184;53.362;5.216;2022-11-14T01:01:05;52.80;;;35.65;;
54271;SDS011;40184;53.362;5.216;2022-11-14T01:03:31;58.10;;;36.40;;
54271;SDS011;40184;53.362;5.216;2022-11-14T01:05:57;56.20;;;36.35;;
54271;SDS011;40184;53.362;5.216;2022-11-14T01:08:29;56.05;;;36.47;;
54271;SDS011;40184;53.362;5.216;2022-11-14T01:10:55;54.65;;;36.83;;
54271;SDS011;40184;53.362;5.216;2022-11-14T01:13:20;64.00;;;38.40;;
54271;SDS011;40184;53.362;5.216;2022-11-14T01:15:47;56.55;;;34.25;;
54271;SDS011;40184;53.362;5.216;2022-11-14T01:18:17;56.60;;;35.95;;
54271;SDS011;40184;53.362;5.216;2022-11-14T01:20:44;56.35;;;36.40;;
54271;SDS011;40184;53.362;5.216;2022-11-14T01:23:12;52.95;;;32.75;;
54271;SDS011;40184;53.362;5.216;2022-11-14T01:25:39;56.67;;;33.92;;
54271;SDS011;40184;53.362;5.216;2022-11-14T01:28:06;54.22;;;33.50;;
54271;SDS011;40184;53.362;5.216;2022-11-14T01:30:33;53.65;;;33.50;;
54271;SDS011;40184;53.362;5.216;2022-11-14T01:32:59;56.60;;;36.00;;
54271;SDS011;40184;53.362;5.216;2022-11-14T01:35:25;51.58;;;33.47;;
54271;SDS011;40184;53.362;5.216;2022-11-14T01:37:51;52.45;;;32.28;;
54271;SDS011;40184;53.362;5.216;2022-11-14T01:40:16;58.67;;;34.00;;
54271;SDS011;40184;53.362;5.216;2022-11-14T01:43:07;61.15;;;35.03;;
54271;SDS011;40184;53.362;5.216;2022-11-14T01:48:43;59.45;;;35.33;;
54271;SDS011;40184;53.362;5.216;2022-11-14T01:51:24;60.90;;;34.22;;
54271;SDS011;40184;53.362;5.216;2022-11-14T01:53:55;55.15;;;32.78;;
54271;SDS011;40184;53.362;5.216;2022-11-14T01:56:27;60.40;;;33.05;;
54271;SDS011;40184;53.362;5.216;2022-11-14T01:58:58;56.97;;;33.25;;
54271;SDS011;40184;53.362;5.216;2022-11-14T02:01:33;60.88;;;33.33;;
54271;SDS011;40184;53.362;5.216;2022-11-14T02:04:02;56.45;;;33.67;;
54271;SDS011;40184;53.362;5.216;2022-11-14T02:06:30;54.90;;;32.60;;
54271;SDS011;40184;53.362;5.216;2022-11-14T02:08:56;53.92;;;31.30;;
54271;SDS011;40184;53.362;5.216;2022-11-14T02:11:27;50.65;;;32.10;;
54271;SDS011;40184;53.362;5.216;2022-11-14T02:13:55;49.03;;;30.63;;
54271;SDS011;40184;53.362;5.216;2022-11-14T02:16:22;52.40;;;31.27;;
54271;SDS011;40184;53.362;5.216;2022-11-14T02:18:48;54.42;;;31.30;;
54271;SDS011;40184;53.362;5.216;2022-11-14T02:21:13;51.15;;;31.90;;
54271;SDS011;40184;53.362;5.216;2022-11-14T02:23:39;53.50;;;31.38;;
54271;SDS011;40184;53.362;5.216;2022-11-14T02:26:05;49.00;;;31.33;;
54271;SDS011;40184;53.362;5.216;2022-11-14T02:28:30;43.08;;;28.92;;
54271;SDS011;40184;53.362;5.216;2022-11-14T02:30:56;47.63;;;30.40;;
54271;SDS011;40184;53.362;5.216;2022-11-14T02:33:22;43.38;;;28.48;;
54271;SDS011;40184;53.362;5.216;2022-11-14T02:35:47;48.50;;;28.83;;
54271;SDS011;40184;53.362;5.216;2022-11-14T02:38:13;46.45;;;28.75;;
54271;SDS011;40184;53.362;5.216;2022-11-14T02:40:39;45.80;;;30.40;;
54271;SDS011;40184;53.362;5.216;2022-11-14T02:43:04;44.75;;;30.55;;
54271;SDS011;40184;53.362;5.216;2022-11-14T02:45:30;45.60;;;30.17;;
54271;SDS011;40184;53.362;5.216;2022-11-14T02:47:56;43.42;;;28.88;;
54271;SDS011;40184;53.362;5.216;2022-11-14T02:50:21;48.72;;;29.80;;
54271;SDS011;40184;53.362;5.216;2022-11-14T02:52:47;46.70;;;29.58;;
54271;SDS011;40184;53.362;5.216;2022-11-14T02:55:13;45.00;;;29.92;;
54271;SDS011;40184;53.362;5.216;2022-11-14T02:57:39;43.58;;;28.85;;
54271;SDS011;40184;53.362;5.216;2022-11-14T03:00:05;42.97;;;29.65;;
54271;SDS011;40184;53.362;5.216;2022-11-14T03:02:31;45.28;;;28.30;;
54271;SDS011;40184;53.362;5.216;2022-11-14T03:04:57;48.88;;;31.00;;
54271;SDS011;40184;53.362;5.216;2022-11-14T03:07:22;43.20;;;28.13;;
54271;SDS011;40184;53.362;5.216;2022-11-14T03:09:48;41.88;;;28.08;;
54271;SDS011;40184;53.362;5.216;2022-11-14T03:12:14;40.97;;;27.80;;
54271;SDS011;40184;53.362;5.216;2022-11-14T03:14:41;39.17;;;26.98;;
54271;SDS011;40184;53.362;5.216;2022-11-14T03:17:07;40.67;;;26.75;;
54271;SDS011;40184;53.362;5.216;2022-11-14T03:19:33;44.65;;;29.45;;
54271;SDS011;40184;53.362;5.216;2022-11-14T03:21:58;35.88;;;27.85;;
54271;SDS011;40184;53.362;5.216;2022-11-14T03:24:24;41.72;;;28.42;;
54271;SDS011;40184;53.362;5.216;2022-11-14T03:26:50;35.78;;;26.40;;
54271;SDS011;40184;53.362;5.216;2022-11-14T03:29:15;42.15;;;27.90;;
54271;SDS011;40184;53.362;5.216;2022-11-14T03:31:41;42.47;;;28.65;;
54271;SDS011;40184;53.362;5.216;2022-11-14T03:34:07;42.30;;;29.35;;
54271;SDS011;40184;53.362;5.216;2022-11-14T03:36:34;37.75;;;28.23;;
54271;SDS011;40184;53.362;5.216;2022-11-14T03:39:00;43.63;;;28.85;;
54271;SDS011;40184;53.362;5.216;2022-11-14T03:41:25;39.40;;;27.65;;
54271;SDS011;40184;53.362;5.216;2022-11-14T03:43:51;37.70;;;29.13;;
54271;SDS011;40184;53.362;5.216;2022-11-14T03:46:16;37.58;;;27.95;;
54271;SDS011;40184;53.362;5.216;2022-11-14T03:48:42;44.45;;;31.58;;
54271;SDS011;40184;53.362;5.216;2022-11-14T03:51:08;37.10;;;27.95;;
54271;SDS011;40184;53.362;5.216;2022-11-14T03:53:33;40.92;;;30.20;;
54271;SDS011;40184;53.362;5.216;2022-11-14T03:55:59;42.40;;;31.30;;
54271;SDS011;40184;53.362;5.216;2022-11-14T03:58:25;44.70;;;29.63;;
54271;SDS011;40184;53.362;5.216;2022-11-14T04:00:50;38.83;;;28.02;;
54271;SDS011;40184;53.362;5.216;2022-11-14T04:03:16;41.80;;;27.95;;
54271;SDS011;40184;53.362;5.216;2022-11-14T04:05:42;40.65;;;29.63;;
54271;SDS011;40184;53.362;5.216;2022-11-14T04:08:09;46.83;;;30.35;;
54271;SDS011;40184;53.362;5.216;2022-11-14T04:10:35;41.85;;;29.77;;
54271;SDS011;40184;53.362;5.216;2022-11-14T04:13:03;40.95;;;31.20;;
54271;SDS011;40184;53.362;5.216;2022-11-14T04:15:29;47.83;;;34.00;;
54271;SDS011;40184;53.362;5.216;2022-11-14T04:17:55;40.47;;;29.70;;
54271;SDS011;40184;53.362;5.216;2022-11-14T04:20:20;47.22;;;32.95;;
54271;SDS011;40184;53.362;5.216;2022-11-14T04:22:46;44.97;;;33.80;;
54271;SDS011;40184;53.362;5.216;2022-11-14T04:25:12;44.60;;;32.90;;
54271;SDS011;40184;53.362;5.216;2022-11-14T04:27:37;43.55;;;33.13;;
54271;SDS011;40184;53.362;5.216;2022-11-14T04:30:04;40.78;;;31.08;;
54271;SDS011;40184;53.362;5.216;2022-11-14T04:32:30;44.78;;;32.40;;
54271;SDS011;40184;53.362;5.216;2022-11-14T04:34:56;45.30;;;34.45;;
54271;SDS011;40184;53.362;5.216;2022-11-14T04:37:21;49.03;;;35.17;;
54271;SDS011;40184;53.362;5.216;2022-11-14T04:39:47;51.10;;;36.47;;
54271;SDS011;40184;53.362;5.216;2022-11-14T04:42:13;46.70;;;36.80;;
54271;SDS011;40184;53.362;5.216;2022-11-14T04:44:38;45.92;;;35.10;;
54271;SDS011;40184;53.362;5.216;2022-11-14T04:47:04;50.50;;;36.15;;
54271;SDS011;40184;53.362;5.216;2022-11-14T04:49:30;48.72;;;36.10;;
54271;SDS011;40184;53.362;5.216;2022-11-14T04:51:55;53.55;;;37.33;;
54271;SDS011;40184;53.362;5.216;2022-11-14T04:54:21;51.22;;;37.45;;
54271;SDS011;40184;53.362;5.216;2022-11-14T04:56:47;50.92;;;38.33;;
54271;SDS011;40184;53.362;5.216;2022-11-14T04:59:13;55.90;;;40.83;;
54271;SDS011;40184;53.362;5.216;2022-11-14T05:01:39;57.55;;;38.60;;
54271;SDS011;40184;53.362;5.216;2022-11-14T05:04:04;57.60;;;40.78;;
54271;SDS011;40184;53.362;5.216;2022-11-14T05:06:30;56.25;;;41.28;;
54271;SDS011;40184;53.362;5.216;2022-11-14T05:08:56;55.90;;;40.83;;
54271;SDS011;40184;53.362;5.216;2022-11-14T05:11:21;52.63;;;40.10;;
54271;SDS011;40184;53.362;5.216;2022-11-14T05:13:47;56.70;;;42.28;;
54271;SDS011;40184;53.362;5.216;2022-11-14T05:16:13;59.83;;;42.17;;
54271;SDS011;40184;53.362;5.216;2022-11-14T05:18:38;57.60;;;41.05;;
54271;SDS011;40184;53.362;5.216;2022-11-14T05:21:04;56.15;;;42.97;;
54271;SDS011;40184;53.362;5.216;2022-11-14T05:23:30;56.97;;;43.20;;
54271;SDS011;40184;53.362;5.216;2022-11-14T05:26:03;60.33;;;44.53;;
54271;SDS011;40184;53.362;5.216;2022-11-14T05:28:30;62.35;;;46.70;;
54271;SDS011;40184;53.362;5.216;2022-11-14T05:31:00;65.00;;;47.22;;
54271;SDS011;40184;53.362;5.216;2022-11-14T05:33:31;62.47;;;46.38;;
54271;SDS011;40184;53.362;5.216;2022-11-14T05:36:04;65.20;;;47.03;;
54271;SDS011;40184;53.362;5.216;2022-11-14T05:38:31;68.93;;;49.75;;
54271;SDS011;40184;53.362;5.216;2022-11-14T05:40:57;66.32;;;47.47;;
54271;SDS011;40184;53.362;5.216;2022-11-14T05:43:23;68.25;;;50.22;;
54271;SDS011;40184;53.362;5.216;2022-11-14T05:45:49;65.07;;;46.38;;
54271;SDS011;40184;53.362;5.216;2022-11-14T05:48:15;67.18;;;47.35;;
54271;SDS011;40184;53.362;5.216;2022-11-14T05:50:41;71.68;;;52.10;;
54271;SDS011;40184;53.362;5.216;2022-11-14T05:53:07;69.35;;;50.30;;
54271;SDS011;40184;53.362;5.216;2022-11-14T05:55:33;66.07;;;48.17;;
54271;SDS011;40184;53.362;5.216;2022-11-14T05:57:58;72.32;;;50.40;;
54271;SDS011;40184;53.362;5.216;2022-11-14T06:00:25;65.65;;;47.17;;
54271;SDS011;40184;53.362;5.216;2022-11-14T06:02:52;68.68;;;49.25;;
54271;SDS011;40184;53.362;5.216;2022-11-14T06:05:18;66.82;;;45.85;;
54271;SDS011;40184;53.362;5.216;2022-11-14T06:07:45;65.38;;;46.85;;
54271;SDS011;40184;53.362;5.216;2022-11-14T06:10:10;68.10;;;46.55;;
54271;SDS011;40184;53.362;5.216;2022-11-14T06:12:37;64.75;;;44.42;;
54271;SDS011;40184;53.362;5.216;2022-11-14T06:15:03;62.35;;;45.58;;
54271;SDS011;40184;53.362;5.216;2022-11-14T06:17:29;67.72;;;49.88;;
54271;SDS011;40184;53.362;5.216;2022-11-14T06:19:55;67.63;;;48.42;;
54271;SDS011;40184;53.362;5.216;2022-11-14T06:22:20;73.25;;;48.67;;
54271;SDS011;40184;53.362;5.216;2022-11-14T06:24:46;65.68;;;46.90;;
54271;SDS011;40184;53.362;5.216;2022-11-14T06:27:12;68.43;;;47.17;;
54271;SDS011;40184;53.362;5.216;2022-11-14T06:29:38;68.95;;;46.90;;
54271;SDS011;40184;53.362;5.216;2022-11-14T06:32:03;64.85;;;43.72;;
54271;SDS011;40184;53.362;5.216;2022-11-14T06:34:29;70.50;;;47.78;;
54271;SDS011;40184;53.362;5.216;2022-11-14T06:36:55;67.38;;;46.65;;
54271;SDS011;40184;53.362;5.216;2022-11-14T06:39:20;71.40;;;48.58;;
54271;SDS011;40184;53.362;5.216;2022-11-14T06:41:46;65.40;;;45.90;;
54271;SDS011;40184;53.362;5.216;2022-11-14T06:44:11;77.07;;;48.45;;
54271;SDS011;40184;53.362;5.216;2022-11-14T06:46:39;62.72;;;45.08;;
54271;SDS011;40184;53.362;5.216;2022-11-14T06:49:05;72.15;;;48.55;;
54271;SDS011;40184;53.362;5.216;2022-11-14T06:51:30;74.32;;;48.03;;
54271;SDS011;40184;53.362;5.216;2022-11-14T06:53:56;73.50;;;48.92;;
54271;SDS011;40184;53.362;5.216;2022-11-14T06:56:22;77.22;;;49.35;;
54271;SDS011;40184;53.362;5.216;2022-11-14T06:58:48;70.95;;;48.63;;
54271;SDS011;40184;53.362;5.216;2022-11-14T07:01:17;69.65;;;48.17;;
54271;SDS011;40184;53.362;5.216;2022-11-14T07:03:45;70.10;;;48.20;;
54271;SDS011;40184;53.362;5.216;2022-11-14T07:06:14;77.10;;;53.92;;
54271;SDS011;40184;53.362;5.216;2022-11-14T07:08:41;74.57;;;50.20;;
54271;SDS011;40184;53.362;5.216;2022-11-14T07:11:08;72.15;;;47.88;;
54271;SDS011;40184;53.362;5.216;2022-11-14T07:13:36;72.22;;;48.25;;
54271;SDS011;40184;53.362;5.216;2022-11-14T07:16:02;71.97;;;50.28;;
54271;SDS011;40184;53.362;5.216;2022-11-14T07:18:30;74.80;;;51.20;;
54271;SDS011;40184;53.362;5.216;2022-11-14T07:20:57;75.07;;;50.05;;
54271;SDS011;40184;53.362;5.216;2022-11-14T07:23:24;81.00;;;52.25;;
54271;SDS011;40184;53.362;5.216;2022-11-14T07:25:50;77.60;;;51.92;;
54271;SDS011;40184;53.362;5.216;2022-11-14T07:28:15;81.88;;;52.35;;
54271;SDS011;40184;53.362;5.216;2022-11-14T07:30:41;85.05;;;54.47;;
54271;SDS011;40184;53.362;5.216;2022-11-14T07:33:07;77.80;;;53.78;;
54271;SDS011;40184;53.362;5.216;2022-11-14T07:35:32;74.97;;;50.75;;
54271;SDS011;40184;53.362;5.216;2022-11-14T07:38:01;77.45;;;49.83;;
54271;SDS011;40184;53.362;5.216;2022-11-14T07:40:28;76.30;;;50.90;;
54271;SDS011;40184;53.362;5.216;2022-11-14T07:43:00;71.47;;;48.50;;
54271;SDS011;40184;53.362;5.216;2022-11-14T07:47:56;74.35;;;50.08;;
54271;SDS011;40184;53.362;5.216;2022-11-14T07:50:23;77.05;;;53.25;;
54271;SDS011;40184;53.362;5.216;2022-11-14T07:52:50;71.97;;;47.42;;
54271;SDS011;40184;53.362;5.216;2022-11-14T07:55:16;81.53;;;50.92;;
54271;SDS011;40184;53.362;5.216;2022-11-14T07:57:42;74.13;;;49.05;;
54271;SDS011;40184;53.362;5.216;2022-11-14T08:00:07;77.47;;;49.80;;
54271;SDS011;40184;53.362;5.216;2022-11-14T08:02:34;68.57;;;47.42;;
54271;SDS011;40184;53.362;5.216;2022-11-14T08:05:00;75.55;;;49.45;;
54271;SDS011;40184;53.362;5.216;2022-11-14T08:07:26;81.68;;;51.13;;
54271;SDS011;40184;53.362;5.216;2022-11-14T08:09:51;74.47;;;47.85;;
54271;SDS011;40184;53.362;5.216;2022-11-14T08:12:17;76.55;;;49.72;;
54271;SDS011;40184;53.362;5.216;2022-11-14T08:14:42;78.40;;;48.80;;
54271;SDS011;40184;53.362;5.216;2022-11-14T08:17:08;74.47;;;49.25;;
54271;SDS011;40184;53.362;5.216;2022-11-14T08:19:34;64.95;;;44.63;;
54271;SDS011;40184;53.362;5.216;2022-11-14T08:21:59;75.85;;;47.55;;
54271;SDS011;40184;53.362;5.216;2022-11-14T08:24:25;63.33;;;45.00;;
54271;SDS011;40184;53.362;5.216;2022-11-14T08:26:50;72.57;;;48.80;;
54271;SDS011;40184;53.362;5.216;2022-11-14T08:29:16;63.25;;;45.40;;
54271;SDS011;40184;53.362;5.216;2022-11-14T08:31:42;61.53;;;43.67;;
54271;SDS011;40184;53.362;5.216;2022-11-14T08:34:09;68.82;;;48.28;;
54271;SDS011;40184;53.362;5.216;2022-11-14T08:36:35;66.82;;;45.38;;
54271;SDS011;40184;53.362;5.216;2022-11-14T08:39:00;64.65;;;46.15;;
54271;SDS011;40184;53.362;5.216;2022-11-14T08:41:26;72.72;;;47.63;;
54271;SDS011;40184;53.362;5.216;2022-11-14T08:43:51;73.78;;;50.80;;
54271;SDS011;40184;53.362;5.216;2022-11-14T08:46:17;61.88;;;45.47;;
54271;SDS011;40184;53.362;5.216;2022-11-14T08:48:43;69.30;;;47.03;;
54271;SDS011;40184;53.362;5.216;2022-11-14T08:51:08;65.05;;;44.55;;
54271;SDS011;40184;53.362;5.216;2022-11-14T08:53:34;64.03;;;45.08;;
54271;SDS011;40184;53.362;5.216;2022-11-14T08:56:00;67.40;;;47.30;;
54271;SDS011;40184;53.362;5.216;2022-11-14T08:58:26;60.58;;;44.72;;
54271;SDS011;40184;53.362;5.216;2022-11-14T09:00:53;63.80;;;43.60;;
54271;SDS011;40184;53.362;5.216;2022-11-14T09:03:23;62.28;;;43.17;;
54271;SDS011;40184;53.362;5.216;2022-11-14T09:05:51;62.65;;;44.30;;
54271;SDS011;40184;53.362;5.216;2022-11-14T09:08:17;64.65;;;42.67;;
54271;SDS011;40184;53.362;5.216;2022-11-14T09:10:43;60.15;;;43.35;;
54271;SDS011;40184;53.362;5.216;2022-11-14T09:13:09;61.72;;;43.92;;
54271;SDS011;40184;53.362;5.216;2022-11-14T09:15:35;61.72;;;45.00;;
54271;SDS011;40184;53.362;5.216;2022-11-14T09:18:02;58.45;;;42.53;;
54271;SDS011;40184;53.362;5.216;2022-11-14T09:20:28;57.28;;;41.50;;
54271;SDS011;40184;53.362;5.216;2022-11-14T09:22:57;57.65;;;39.90;;
54271;SDS011;40184;53.362;5.216;2022-11-14T09:25:23;63.47;;;41.92;;
54271;SDS011;40184;53.362;5.216;2022-11-14T09:27:50;61.63;;;45.20;;
54271;SDS011;40184;53.362;5.216;2022-11-14T09:30:16;57.75;;;41.20;;
54271;SDS011;40184;53.362;5.216;2022-11-14T09:32:42;54.45;;;40.33;;
54271;SDS011;40184;53.362;5.216;2022-11-14T09:35:08;54.15;;;41.70;;
54271;SDS011;40184;53.362;5.216;2022-11-14T09:37:36;56.17;;;42.05;;
54271;SDS011;40184;53.362;5.216;2022-11-14T09:40:03;52.65;;;39.13;;
54271;SDS011;40184;53.362;5.216;2022-11-14T09:42:33;55.00;;;39.85;;
54271;SDS011;40184;53.362;5.216;2022-11-14T09:45:17;52.35;;;39.50;;
54271;SDS011;40184;53.362;5.216;2022-11-14T09:47:43;57.10;;;40.67;;
54271;SDS011;40184;53.362;5.216;2022-11-14T09:50:17;52.88;;;39.92;;
54271;SDS011;40184;53.362;5.216;2022-11-14T09:52:54;55.10;;;38.72;;
54271;SDS011;40184;53.362;5.216;2022-11-14T09:55:23;52.08;;;39.38;;
54271;SDS011;40184;53.362;5.216;2022-11-14T09:57:53;56.60;;;38.42;;
54271;SDS011;40184;53.362;5.216;2022-11-14T10:00:24;49.65;;;38.97;;
54271;SDS011;40184;53.362;5.216;2022-11-14T10:05:21;50.30;;;37.78;;
54271;SDS011;40184;53.362;5.216;2022-11-14T10:08:23;47.88;;;35.35;;
54271;SDS011;40184;53.362;5.216;2022-11-14T10:10:58;48.00;;;37.55;;
54271;SDS011;40184;53.362;5.216;2022-11-14T10:16:09;51.47;;;38.13;;
54271;SDS011;40184;53.362;5.216;2022-11-14T10:18:40;51.42;;;35.75;;
54271;SDS011;40184;53.362;5.216;2022-11-14T10:27:00;41.25;;;32.13;;
54271;SDS011;40184;53.362;5.216;2022-11-14T10:40:15;44.53;;;34.35;;
54271;SDS011;40184;53.362;5.216;2022-11-14T10:48:44;54.45;;;36.78;;
54271;SDS011;40184;53.362;5.216;2022-11-14T10:56:47;44.85;;;33.80;;
54271;SDS011;40184;53.362;5.216;2022-11-14T10:59:14;46.97;;;35.47;;
54271;SDS011;40184;53.362;5.216;2022-11-14T11:01:40;47.20;;;35.28;;
54271;SDS011;40184;53.362;5.216;2022-11-14T11:06:57;47.08;;;34.25;;
54271;SDS011;40184;53.362;5.216;2022-11-14T11:10:02;46.35;;;33.10;;
54271;SDS011;40184;53.362;5.216;2022-11-14T11:12:51;43.85;;;33.45;;
54271;SDS011;40184;53.362;5.216;2022-11-14T11:23:00;42.30;;;33.45;;
54271;SDS011;40184;53.362;5.216;2022-11-14T11:25:27;46.15;;;34.72;;
54271;SDS011;40184;53.362;5.216;2022-11-14T11:28:27;45.53;;;32.58;;
54271;SDS011;40184;53.362;5.216;2022-11-14T11:30:56;43.77;;;32.03;;
54271;SDS011;40184;53.362;5.216;2022-11-14T11:33:24;48.28;;;33.10;;
54271;SDS011;40184;53.362;5.216;2022-11-14T11:36:04;39.70;;;30.45;;
54271;SDS011;40184;53.362;5.216;2022-11-14T11:38:37;42.20;;;32.92;;
54271;SDS011;40184;53.362;5.216;2022-11-14T11:43:44;44.10;;;32.97;;
54271;SDS011;40184;53.362;5.216;2022-11-14T11:46:20;44.00;;;32.67;;
54271;SDS011;40184;53.362;5.216;2022-11-14T11:48:54;43.75;;;31.90;;
54271;SDS011;40184;53.362;5.216;2022-11-14T11:51:29;44.55;;;34.08;;
54271;SDS011;40184;53.362;5.216;2022-11-14T11:54:03;47.08;;;35.75;;
54271;SDS011;40184;53.362;5.216;2022-11-14T11:56:37;48.20;;;35.83;;
54271;SDS011;40184;53.362;5.216;2022-11-14T12:02:02;60.45;;;43.13;;
54271;SDS011;40184;53.362;5.216;2022-11-14T12:04:50;82.10;;;59.78;;
54271;SDS011;40184;53.362;5.216;2022-11-14T12:07:17;59.10;;;44.20;;
54271;SDS011;40184;53.362;5.216;2022-11-14T12:09:46;65.32;;;48.85;;
54271;SDS011;40184;53.362;5.216;2022-11-14T12:12:16;54.63;;;37.42;;
54271;SDS011;40184;53.362;5.216;2022-11-14T12:17:34;62.88;;;43.90;;
54271;SDS011;40184;53.362;5.216;2022-11-14T12:31:33;73.60;;;55.05;;
54271;SDS011;40184;53.362;5.216;2022-11-14T12:34:03;56.50;;;40.72;;
54271;SDS011;40184;53.362;5.216;2022-11-14T12:36:38;52.10;;;38.28;;
54271;SDS011;40184;53.362;5.216;2022-11-14T12:39:18;51.25;;;37.85;;
54271;SDS011;40184;53.362;5.216;2022-11-14T12:41:46;54.97;;;37.35;;
54271;SDS011;40184;53.362;5.216;2022-11-14T12:47:17;54.45;;;37.95;;
54271;SDS011;40184;53.362;5.216;2022-11-14T12:52:53;49.90;;;36.03;;
54271;SDS011;40184;53.362;5.216;2022-11-14T13:00:15;50.80;;;35.92;;
54271;SDS011;40184;53.362;5.216;2022-11-14T13:02:52;48.10;;;35.63;;
54271;SDS011;40184;53.362;5.216;2022-11-14T13:10:57;48.13;;;34.08;;
54271;SDS011;40184;53.362;5.216;2022-11-14T13:13:23;46.20;;;34.00;;
54271;SDS011;40184;53.362;5.216;2022-11-14T13:16:20;46.88;;;33.88;;
54271;SDS011;40184;53.362;5.216;2022-11-14T13:19:21;48.70;;;34.38;;
54271;SDS011;40184;53.362;5.216;2022-11-14T13:27:27;44.55;;;31.90;;
54271;SDS011;40184;53.362;5.216;2022-11-14T13:29:54;42.92;;;30.98;;
54271;SDS011;40184;53.362;5.216;2022-11-14T13:41:02;39.97;;;31.77;;
54271;SDS011;40184;53.362;5.216;2022-11-14T13:43:53;48.13;;;32.55;;
54271;SDS011;40184;53.362;5.216;2022-11-14T13:49:28;48.55;;;34.47;;
54271;SDS011;40184;53.362;5.216;2022-11-14T13:52:06;43.58;;;31.95;;
54271;SDS011;40184;53.362;5.216;2022-11-14T13:54:31;40.92;;;31.42;;
54271;SDS011;40184;53.362;5.216;2022-11-14T14:02:31;49.58;;;33.25;;
54271;SDS011;40184;53.362;5.216;2022-11-14T14:16:59;55.83;;;36.92;;
54271;SDS011;40184;53.362;5.216;2022-11-14T14:28:04;45.90;;;34.08;;
54271;SDS011;40184;53.362;5.216;2022-11-14T14:30:39;49.45;;;36.05;;
54271;SDS011;40184;53.362;5.216;2022-11-14T14:33:09;54.30;;;35.53;;
54271;SDS011;40184;53.362;5.216;2022-11-14T14:35:37;46.60;;;33.47;;
54271;SDS011;40184;53.362;5.216;2022-11-14T14:38:04;53.53;;;39.90;;
54271;SDS011;40184;53.362;5.216;2022-11-14T14:40:38;52.03;;;36.70;;
54271;SDS011;40184;53.362;5.216;2022-11-14T14:43:05;48.33;;;35.00;;
54271;SDS011;40184;53.362;5.216;2022-11-14T14:45:35;45.50;;;31.33;;
54271;SDS011;40184;53.362;5.216;2022-11-14T14:48:11;49.50;;;36.53;;
54271;SDS011;40184;53.362;5.216;2022-11-14T14:50:47;45.05;;;33.17;;
54271;SDS011;40184;53.362;5.216;2022-11-14T14:53:25;45.42;;;31.85;;
54271;SDS011;40184;53.362;5.216;2022-11-14T14:55:57;45.60;;;33.95;;
54271;SDS011;40184;53.362;5.216;2022-11-14T15:01:08;58.42;;;41.63;;
54271;SDS011;40184;53.362;5.216;2022-11-14T15:03:49;90.68;;;56.05;;
54271;SDS011;40184;53.362;5.216;2022-11-14T15:06:30;82.32;;;55.40;;
54271;SDS011;40184;53.362;5.216;2022-11-14T15:08:58;64.78;;;46.20;;
54271;SDS011;40184;53.362;5.216;2022-11-14T15:11:26;58.45;;;42.58;;
54271;SDS011;40184;53.362;5.216;2022-11-14T15:13:56;57.00;;;38.88;;
54271;SDS011;40184;53.362;5.216;2022-11-14T15:16:23;51.50;;;37.30;;
54271;SDS011;40184;53.362;5.216;2022-11-14T15:18:50;53.50;;;38.50;;
54271;SDS011;40184;53.362;5.216;2022-11-14T15:24:26;73.05;;;48.15;;
54271;SDS011;40184;53.362;5.216;2022-11-14T15:26:46;72.38;;;48.78;;
54271;SDS011;40184;53.362;5.216;2022-11-14T15:31:45;98.13;;;58.47;;
54271;SDS011;40184;53.362;5.216;2022-11-14T15:34:27;88.65;;;53.35;;
54271;SDS011;40184;53.362;5.216;2022-11-14T15:39:50;99.75;;;60.72;;
54271;SDS011;40184;53.362;5.216;2022-11-14T15:44:47;102.07;;;72.20;;
54271;SDS011;40184;53.362;5.216;2022-11-14T15:47:23;69.72;;;49.70;;
54271;SDS011;40184;53.362;5.216;2022-11-14T15:52:33;72.50;;;46.75;;
54271;SDS011;40184;53.362;5.216;2022-11-14T15:55:01;129.65;;;84.65;;
54271;SDS011;40184;53.362;5.216;2022-11-14T15:57:30;81.50;;;58.03;;
54271;SDS011;40184;53.362;5.216;2022-11-14T15:59:56;66.68;;;47.05;;
54271;SDS011;40184;53.362;5.216;2022-11-14T16:02:29;59.03;;;42.45;;
54271;SDS011;40184;53.362;5.216;2022-11-14T16:04:57;53.38;;;39.83;;
54271;SDS011;40184;53.362;5.216;2022-11-14T16:07:24;64.47;;;45.83;;
54271;SDS011;40184;53.362;5.216;2022-11-14T16:09:52;65.15;;;46.92;;
54271;SDS011;40184;53.362;5.216;2022-11-14T16:12:18;54.95;;;39.58;;
54271;SDS011;40184;53.362;5.216;2022-11-14T16:14:43;55.38;;;41.75;;
54271;SDS011;40184;53.362;5.216;2022-11-14T16:17:13;54.10;;;37.38;;
54271;SDS011;40184;53.362;5.216;2022-11-14T16:19:40;49.45;;;36.15;;
54271;SDS011;40184;53.362;5.216;2022-11-14T16:22:07;48.47;;;35.97;;
54271;SDS011;40184;53.362;5.216;2022-11-14T16:24:36;53.17;;;39.50;;
54271;SDS011;40184;53.362;5.216;2022-11-14T16:27:02;75.13;;;46.88;;
54271;SDS011;40184;53.362;5.216;2022-11-14T16:29:28;66.90;;;48.50;;
54271;SDS011;40184;53.362;5.216;2022-11-14T16:31:53;90.07;;;56.08;;
54271;SDS011;40184;53.362;5.216;2022-11-14T16:34:23;55.83;;;40.50;;
54271;SDS011;40184;53.362;5.216;2022-11-14T16:36:56;50.10;;;36.92;;
54271;SDS011;40184;53.362;5.216;2022-11-14T16:39:23;53.63;;;36.25;;
54271;SDS011;40184;53.362;5.216;2022-11-14T16:41:49;44.47;;;33.92;;
54271;SDS011;40184;53.362;5.216;2022-11-14T16:44:15;52.85;;;42.38;;
54271;SDS011;40184;53.362;5.216;2022-11-14T16:46:41;44.30;;;35.72;;
54271;SDS011;40184;53.362;5.216;2022-11-14T16:49:10;46.00;;;36.95;;
54271;SDS011;40184;53.362;5.216;2022-11-14T16:51:37;38.65;;;28.70;;